KBGD/BGD METAR and TAF weather

Enter ICAO airport designator
Station Type Date Time Source
KBGD METAR 2022/01/26 14:51 UTC NOAA

KBGD 261451Z AUTO 12005KT 2 1/2SM -SN BR SCT033 BKN047 OVC090 M06/M08 A3031 RMK AO2 SNE1357B32 SLP291 P0000 60000 T10611083 58009


Station Type Date Time Source
KBGD Decoded METAR 2022/01/26 14:51 UTC NOAA

BORGER HUTCHINSON CO AIRPORT , TX, United States (KBGD) 35-42N 101-24W 927M
Jan 26, 2022 - 09:51 AM EST / 2022.01.26 1451 UTC
Wind: from the ESE (120 degrees) at 6 MPH (5 KT):0
Visibility: 2 1/2 mile(s):0
Sky conditions: overcast
Weather: light snow; mist
Precipitation last hour: A trace
Temperature: 21.0 F (-6.1 C)
Windchill: 14 F (-10 C):1
Dew Point: 17.1 F (-8.3 C)
Relative Humidity: 84%
Pressure (altimeter): 30.31 in. Hg (1026 hPa)
Pressure tendency: 0.03 inches (0.9 hPa) lower than three hours ago
ob: KBGD 261451Z AUTO 12005KT 2 1/2SM -SN BR SCT033 BKN047 OVC090 M06/M08 A3031 RMK AO2 SNE1357B32 SLP291 P0000 60000 T10611083 58009
cycle: 15

Station Type Date Time Source
KBGD TAF UTC NOAA

Error!

Example: see airport list